sensor_id;sensor_type;location;lat;lon;timestamp;pressure;altitude;pressure_sealevel;temperature;humidity
34482;BME280;20720;48.886;9.388;2023-07-09T00:00:45;98678.91;;;25.67;75.55
34482;BME280;20720;48.886;9.388;2023-07-09T00:03:12;98689.34;;;25.92;74.92
34482;BME280;20720;48.886;9.388;2023-07-09T00:05:37;98687.56;;;25.64;75.92
34482;BME280;20720;48.886;9.388;2023-07-09T00:08:03;98695.22;;;25.52;76.31
34482;BME280;20720;48.886;9.388;2023-07-09T00:10:28;98693.50;;;25.61;76.37
34482;BME280;20720;48.886;9.388;2023-07-09T00:12:53;98693.63;;;25.51;76.95
34482;BME280;20720;48.886;9.388;2023-07-09T00:15:19;98693.88;;;24.97;78.62
34482;BME280;20720;48.886;9.388;2023-07-09T00:17:44;98684.59;;;25.42;76.79
34482;BME280;20720;48.886;9.388;2023-07-09T00:20:15;98686.63;;;25.73;75.35
34482;BME280;20720;48.886;9.388;2023-07-09T00:22:42;98682.94;;;25.88;74.84
34482;BME280;20720;48.886;9.388;2023-07-09T00:25:17;98695.16;;;25.80;74.81
34482;BME280;20720;48.886;9.388;2023-07-09T00:27:43;98690.28;;;25.35;76.45
34482;BME280;20720;48.886;9.388;2023-07-09T00:30:20;98700.13;;;24.92;79.46
34482;BME280;20720;48.886;9.388;2023-07-09T00:32:47;98696.50;;;25.02;79.44
34482;BME280;20720;48.886;9.388;2023-07-09T00:35:13;98691.69;;;25.28;78.58
34482;BME280;20720;48.886;9.388;2023-07-09T00:37:42;98695.06;;;25.14;79.04
34482;BME280;20720;48.886;9.388;2023-07-09T00:40:18;98693.78;;;25.36;78.70
34482;BME280;20720;48.886;9.388;2023-07-09T00:42:46;98697.00;;;25.38;79.18
34482;BME280;20720;48.886;9.388;2023-07-09T00:45:24;98704.81;;;25.34;79.39
34482;BME280;20720;48.886;9.388;2023-07-09T00:48:00;98701.94;;;25.26;80.27
34482;BME280;20720;48.886;9.388;2023-07-09T00:53:04;98714.19;;;25.13;81.23
34482;BME280;20720;48.886;9.388;2023-07-09T00:55:34;98712.53;;;24.83;82.98
34482;BME280;20720;48.886;9.388;2023-07-09T00:58:06;98705.66;;;24.67;83.83
34482;BME280;20720;48.886;9.388;2023-07-09T01:00:42;98715.19;;;24.50;85.69
34482;BME280;20720;48.886;9.388;2023-07-09T01:03:15;98709.22;;;24.19;87.52
34482;BME280;20720;48.886;9.388;2023-07-09T01:05:44;98710.47;;;23.73;91.18
34482;BME280;20720;48.886;9.388;2023-07-09T01:08:11;98705.50;;;24.00;90.07
34482;BME280;20720;48.886;9.388;2023-07-09T01:10:37;98707.03;;;24.26;88.51
34482;BME280;20720;48.886;9.388;2023-07-09T01:13:05;98706.50;;;24.24;88.57
34482;BME280;20720;48.886;9.388;2023-07-09T01:15:33;98711.44;;;24.51;88.65
34482;BME280;20720;48.886;9.388;2023-07-09T01:17:59;98710.34;;;24.52;88.24
34482;BME280;20720;48.886;9.388;2023-07-09T01:20:26;98714.91;;;24.56;88.12
34482;BME280;20720;48.886;9.388;2023-07-09T01:22:52;98712.22;;;24.51;88.17
34482;BME280;20720;48.886;9.388;2023-07-09T01:25:20;98706.81;;;24.17;91.11
34482;BME280;20720;48.886;9.388;2023-07-09T01:27:47;98710.16;;;24.38;89.20
34482;BME280;20720;48.886;9.388;2023-07-09T01:30:16;98718.03;;;24.24;90.04
34482;BME280;20720;48.886;9.388;2023-07-09T01:32:43;98712.50;;;24.11;90.76
34482;BME280;20720;48.886;9.388;2023-07-09T01:35:12;98714.03;;;24.22;89.51
34482;BME280;20720;48.886;9.388;2023-07-09T01:37:38;98709.97;;;24.24;90.28
34482;BME280;20720;48.886;9.388;2023-07-09T01:40:06;98714.03;;;24.17;91.26
34482;BME280;20720;48.886;9.388;2023-07-09T01:42:33;98705.94;;;24.27;90.18
34482;BME280;20720;48.886;9.388;2023-07-09T01:44:58;98712.13;;;24.27;89.58
34482;BME280;20720;48.886;9.388;2023-07-09T01:47:24;98712.75;;;24.09;90.68
34482;BME280;20720;48.886;9.388;2023-07-09T01:49:51;98705.59;;;23.90;92.27
34482;BME280;20720;48.886;9.388;2023-07-09T01:52:22;98707.16;;;23.96;92.32
34482;BME280;20720;48.886;9.388;2023-07-09T01:54:49;98708.03;;;23.86;93.37
34482;BME280;20720;48.886;9.388;2023-07-09T01:57:20;98712.84;;;23.84;93.11
34482;BME280;20720;48.886;9.388;2023-07-09T01:59:53;98708.88;;;23.77;94.10
34482;BME280;20720;48.886;9.388;2023-07-09T02:02:20;98715.31;;;23.66;94.56
34482;BME280;20720;48.886;9.388;2023-07-09T02:04:51;98711.94;;;23.10;100.00
34482;BME280;20720;48.886;9.388;2023-07-09T02:07:18;98719.72;;;23.11;100.00
34482;BME280;20720;48.886;9.388;2023-07-09T02:09:43;98714.38;;;22.81;100.00
34482;BME280;20720;48.886;9.388;2023-07-09T02:12:10;98718.09;;;23.20;100.00
34482;BME280;20720;48.886;9.388;2023-07-09T02:14:37;98719.19;;;23.19;100.00
34482;BME280;20720;48.886;9.388;2023-07-09T02:17:03;98720.78;;;23.25;99.79
34482;BME280;20720;48.886;9.388;2023-07-09T02:19:30;98714.88;;;23.28;98.69
34482;BME280;20720;48.886;9.388;2023-07-09T02:21:56;98726.16;;;23.25;99.34
34482;BME280;20720;48.886;9.388;2023-07-09T02:24:21;98726.16;;;23.25;99.67
34482;BME280;20720;48.886;9.388;2023-07-09T02:26:51;98723.47;;;23.30;98.77
34482;BME280;20720;48.886;9.388;2023-07-09T02:29:16;98727.22;;;23.19;99.24
34482;BME280;20720;48.886;9.388;2023-07-09T02:31:44;98719.72;;;23.11;100.00
34482;BME280;20720;48.886;9.388;2023-07-09T02:34:09;98731.50;;;23.15;100.00
34482;BME280;20720;48.886;9.388;2023-07-09T02:36:35;98722.94;;;23.08;100.00
34482;BME280;20720;48.886;9.388;2023-07-09T02:39:00;98725.63;;;22.63;100.00
34482;BME280;20720;48.886;9.388;2023-07-09T02:41:25;98724.03;;;23.02;100.00
34482;BME280;20720;48.886;9.388;2023-07-09T02:43:51;98729.38;;;23.07;100.00
34482;BME280;20720;48.886;9.388;2023-07-09T02:46:16;98726.16;;;23.05;100.00
34482;BME280;20720;48.886;9.388;2023-07-09T02:48:43;98737.69;;;23.01;100.00
34482;BME280;20720;48.886;9.388;2023-07-09T02:51:08;98733.13;;;22.96;100.00
34482;BME280;20720;48.886;9.388;2023-07-09T02:53:33;98736.34;;;22.83;100.00
34482;BME280;20720;48.886;9.388;2023-07-09T02:55:59;98744.91;;;22.90;100.00
34482;BME280;20720;48.886;9.388;2023-07-09T02:58:24;98740.38;;;22.86;100.00
34482;BME280;20720;48.886;9.388;2023-07-09T03:00:49;98744.94;;;22.80;100.00
34482;BME280;20720;48.886;9.388;2023-07-09T03:03:21;98746.00;;;22.74;100.00
34482;BME280;20720;48.886;9.388;2023-07-09T03:05:47;98743.56;;;22.68;100.00
34482;BME280;20720;48.886;9.388;2023-07-09T03:08:13;98753.47;;;22.62;100.00
34482;BME280;20720;48.886;9.388;2023-07-09T03:10:38;98754.81;;;22.70;100.00
34482;BME280;20720;48.886;9.388;2023-07-09T03:13:04;98751.00;;;22.51;100.00
34482;BME280;20720;48.886;9.388;2023-07-09T03:15:31;98752.41;;;22.58;100.00
34482;BME280;20720;48.886;9.388;2023-07-09T03:17:56;98751.84;;;22.56;100.00
34482;BME280;20720;48.886;9.388;2023-07-09T03:20:21;98752.34;;;22.43;100.00
34482;BME280;20720;48.886;9.388;2023-07-09T03:22:47;98756.34;;;22.30;100.00
34482;BME280;20720;48.886;9.388;2023-07-09T03:25:12;98744.53;;;22.21;100.00
34482;BME280;20720;48.886;9.388;2023-07-09T03:27:37;98751.75;;;22.21;100.00
34482;BME280;20720;48.886;9.388;2023-07-09T03:30:03;98749.34;;;22.29;100.00
34482;BME280;20720;48.886;9.388;2023-07-09T03:32:28;98744.84;;;21.73;100.00
34482;BME280;20720;48.886;9.388;2023-07-09T03:34:53;98750.66;;;22.17;100.00
34482;BME280;20720;48.886;9.388;2023-07-09T03:37:19;98747.50;;;22.20;100.00
34482;BME280;20720;48.886;9.388;2023-07-09T03:39:46;98746.69;;;21.73;100.00
34482;BME280;20720;48.886;9.388;2023-07-09T03:42:12;98745.25;;;22.02;100.00
34482;BME280;20720;48.886;9.388;2023-07-09T03:44:37;98746.97;;;22.43;100.00
34482;BME280;20720;48.886;9.388;2023-07-09T03:47:03;98751.53;;;22.27;100.00
34482;BME280;20720;48.886;9.388;2023-07-09T03:49:28;98748.34;;;22.51;100.00
34482;BME280;20720;48.886;9.388;2023-07-09T03:51:53;98756.72;;;22.74;100.00
34482;BME280;20720;48.886;9.388;2023-07-09T03:54:18;98754.56;;;22.86;100.00
34482;BME280;20720;48.886;9.388;2023-07-09T03:56:44;98760.47;;;22.93;100.00
34482;BME280;20720;48.886;9.388;2023-07-09T03:59:10;98767.44;;;22.94;100.00
34482;BME280;20720;48.886;9.388;2023-07-09T04:01:35;98764.22;;;22.87;100.00
34482;BME280;20720;48.886;9.388;2023-07-09T04:04:00;98762.63;;;22.76;100.00
34482;BME280;20720;48.886;9.388;2023-07-09T04:06:26;98759.69;;;22.73;100.00
34482;BME280;20720;48.886;9.388;2023-07-09T04:08:51;98767.97;;;22.96;100.00
34482;BME280;20720;48.886;9.388;2023-07-09T04:11:16;98759.41;;;22.94;100.00
34482;BME280;20720;48.886;9.388;2023-07-09T04:13:41;98764.22;;;23.02;100.00
34482;BME280;20720;48.886;9.388;2023-07-09T04:16:09;98763.13;;;23.28;98.31
34482;BME280;20720;48.886;9.388;2023-07-09T04:18:35;98771.75;;;23.10;100.00
34482;BME280;20720;48.886;9.388;2023-07-09T04:21:01;98767.69;;;23.28;100.00
34482;BME280;20720;48.886;9.388;2023-07-09T04:23:26;98763.16;;;23.39;98.64
34482;BME280;20720;48.886;9.388;2023-07-09T04:25:52;98772.81;;;23.40;98.68
34482;BME280;20720;48.886;9.388;2023-07-09T04:28:17;98774.94;;;23.22;99.42
34482;BME280;20720;48.886;9.388;2023-07-09T04:30:49;98768.00;;;23.16;100.00
34482;BME280;20720;48.886;9.388;2023-07-09T04:33:16;98773.34;;;23.52;97.88
34482;BME280;20720;48.886;9.388;2023-07-09T04:35:44;98769.53;;;23.63;96.88
34482;BME280;20720;48.886;9.388;2023-07-09T04:38:09;98775.44;;;23.75;95.98
34482;BME280;20720;48.886;9.388;2023-07-09T04:40:35;98773.81;;;23.79;95.66
34482;BME280;20720;48.886;9.388;2023-07-09T04:43:01;98776.69;;;23.92;93.80
34482;BME280;20720;48.886;9.388;2023-07-09T04:45:26;98778.31;;;23.93;94.98
34482;BME280;20720;48.886;9.388;2023-07-09T04:47:51;98780.66;;;24.15;93.03
34482;BME280;20720;48.886;9.388;2023-07-09T04:50:17;98774.72;;;24.23;93.10
34482;BME280;20720;48.886;9.388;2023-07-09T04:52:43;98787.13;;;24.68;90.07
34482;BME280;20720;48.886;9.388;2023-07-09T04:55:08;98778.75;;;25.13;87.38
34482;BME280;20720;48.886;9.388;2023-07-09T04:57:34;98787.81;;;24.83;89.12
34482;BME280;20720;48.886;9.388;2023-07-09T04:59:59;98781.75;;;26.16;82.05
34482;BME280;20720;48.886;9.388;2023-07-09T05:02:24;98781.22;;;26.56;78.58
34482;BME280;20720;48.886;9.388;2023-07-09T05:04:50;98783.06;;;26.79;78.05
34482;BME280;20720;48.886;9.388;2023-07-09T05:07:16;98790.88;;;27.32;74.73
34482;BME280;20720;48.886;9.388;2023-07-09T05:09:41;98784.19;;;26.92;75.36
34482;BME280;20720;48.886;9.388;2023-07-09T05:12:09;98790.03;;;27.50;73.89
34482;BME280;20720;48.886;9.388;2023-07-09T05:14:34;98786.38;;;29.12;67.18
34482;BME280;20720;48.886;9.388;2023-07-09T05:17:00;98792.63;;;29.21;65.73
34482;BME280;20720;48.886;9.388;2023-07-09T05:19:25;98797.66;;;29.67;63.53
34482;BME280;20720;48.886;9.388;2023-07-09T05:21:50;98786.47;;;29.29;65.44
34482;BME280;20720;48.886;9.388;2023-07-09T05:24:16;98791.63;;;30.09;63.40
34482;BME280;20720;48.886;9.388;2023-07-09T05:26:41;98783.78;;;31.24;59.46
34482;BME280;20720;48.886;9.388;2023-07-09T05:29:06;98791.78;;;30.78;59.40
34482;BME280;20720;48.886;9.388;2023-07-09T05:31:32;98797.84;;;31.26;58.34
34482;BME280;20720;48.886;9.388;2023-07-09T05:34:00;98803.38;;;31.64;57.30
34482;BME280;20720;48.886;9.388;2023-07-09T05:36:27;98804.19;;;30.44;60.06
34482;BME280;20720;48.886;9.388;2023-07-09T05:38:52;98794.16;;;30.71;59.38
34482;BME280;20720;48.886;9.388;2023-07-09T05:41:18;98794.47;;;30.78;58.80
34482;BME280;20720;48.886;9.388;2023-07-09T05:43:44;98798.47;;;30.63;59.73
34482;BME280;20720;48.886;9.388;2023-07-09T05:46:10;98793.69;;;30.43;60.42
34482;BME280;20720;48.886;9.388;2023-07-09T05:48:35;98801.41;;;31.73;56.73
34482;BME280;20720;48.886;9.388;2023-07-09T05:51:00;98792.16;;;32.11;55.41
34482;BME280;20720;48.886;9.388;2023-07-09T05:53:26;98793.69;;;31.37;56.66
34482;BME280;20720;48.886;9.388;2023-07-09T05:55:55;98807.38;;;31.66;55.39
34482;BME280;20720;48.886;9.388;2023-07-09T05:58:20;98803.59;;;31.16;56.80
34482;BME280;20720;48.886;9.388;2023-07-09T06:00:49;98802.66;;;31.92;54.67
34482;BME280;20720;48.886;9.388;2023-07-09T06:03:17;98809.13;;;32.67;53.56
34482;BME280;20720;48.886;9.388;2023-07-09T06:05:43;98802.56;;;32.38;53.57
34482;BME280;20720;48.886;9.388;2023-07-09T06:08:08;98802.16;;;32.78;52.71
34482;BME280;20720;48.886;9.388;2023-07-09T06:10:33;98802.44;;;32.85;52.21
34482;BME280;20720;48.886;9.388;2023-07-09T06:12:58;98804.09;;;32.57;52.41
34482;BME280;20720;48.886;9.388;2023-07-09T06:15:25;98800.16;;;32.87;52.30
34482;BME280;20720;48.886;9.388;2023-07-09T06:17:50;98805.72;;;33.64;50.21
34482;BME280;20720;48.886;9.388;2023-07-09T06:20:15;98802.91;;;33.07;50.81
34482;BME280;20720;48.886;9.388;2023-07-09T06:22:41;98806.59;;;33.56;51.08
34482;BME280;20720;48.886;9.388;2023-07-09T06:25:06;98811.53;;;33.42;50.26
34482;BME280;20720;48.886;9.388;2023-07-09T06:27:31;98809.50;;;33.84;49.89
34482;BME280;20720;48.886;9.388;2023-07-09T06:29:57;98803.69;;;32.87;51.75
34482;BME280;20720;48.886;9.388;2023-07-09T06:32:22;98818.38;;;33.15;51.26
34482;BME280;20720;48.886;9.388;2023-07-09T06:34:47;98815.38;;;32.09;53.17
34482;BME280;20720;48.886;9.388;2023-07-09T06:37:12;98813.44;;;32.68;52.49
34482;BME280;20720;48.886;9.388;2023-07-09T06:39:38;98800.91;;;34.18;49.85
34482;BME280;20720;48.886;9.388;2023-07-09T06:42:03;98808.44;;;35.40;47.26
34482;BME280;20720;48.886;9.388;2023-07-09T06:44:28;98812.63;;;33.62;50.40
34482;BME280;20720;48.886;9.388;2023-07-09T06:46:54;98816.56;;;34.57;48.69
34482;BME280;20720;48.886;9.388;2023-07-09T06:49:19;98801.72;;;35.97;45.35
34482;BME280;20720;48.886;9.388;2023-07-09T06:51:44;98802.72;;;35.45;46.26
34482;BME280;20720;48.886;9.388;2023-07-09T06:54:11;98802.06;;;35.79;45.53
34482;BME280;20720;48.886;9.388;2023-07-09T06:56:37;98809.97;;;35.53;45.96
34482;BME280;20720;48.886;9.388;2023-07-09T06:59:02;98804.53;;;36.47;44.31
34482;BME280;20720;48.886;9.388;2023-07-09T07:01:27;98803.81;;;36.69;44.79
34482;BME280;20720;48.886;9.388;2023-07-09T07:03:52;98804.75;;;36.07;45.82
34482;BME280;20720;48.886;9.388;2023-07-09T07:06:18;98805.28;;;36.82;44.32
34482;BME280;20720;48.886;9.388;2023-07-09T07:08:43;98812.47;;;37.06;42.52
34482;BME280;20720;48.886;9.388;2023-07-09T07:11:09;98809.09;;;35.49;45.39
34482;BME280;20720;48.886;9.388;2023-07-09T07:13:36;98813.13;;;36.83;44.28
34482;BME280;20720;48.886;9.388;2023-07-09T07:16:05;98814.75;;;34.13;47.77
34482;BME280;20720;48.886;9.388;2023-07-09T07:18:30;98812.38;;;34.24;49.78
34482;BME280;20720;48.886;9.388;2023-07-09T07:20:56;98807.13;;;34.43;48.19
34482;BME280;20720;48.886;9.388;2023-07-09T07:23:21;98805.13;;;35.47;46.87
34482;BME280;20720;48.886;9.388;2023-07-09T07:25:47;98801.13;;;35.17;46.99
34482;BME280;20720;48.886;9.388;2023-07-09T07:28:13;98810.06;;;32.71;50.89
34482;BME280;20720;48.886;9.388;2023-07-09T07:30:38;98810.34;;;34.08;49.06
34482;BME280;20720;48.886;9.388;2023-07-09T07:33:03;98801.59;;;35.19;48.06
34482;BME280;20720;48.886;9.388;2023-07-09T07:35:28;98799.59;;;34.40;48.54
34482;BME280;20720;48.886;9.388;2023-07-09T07:37:54;98803.94;;;36.92;43.28
34482;BME280;20720;48.886;9.388;2023-07-09T07:40:19;98801.13;;;37.07;42.51
34482;BME280;20720;48.886;9.388;2023-07-09T07:42:44;98804.88;;;36.99;42.84
34482;BME280;20720;48.886;9.388;2023-07-09T07:45:10;98804.06;;;37.79;40.74
34482;BME280;20720;48.886;9.388;2023-07-09T07:47:36;98802.94;;;37.80;41.74
34482;BME280;20720;48.886;9.388;2023-07-09T07:50:01;98791.00;;;38.43;40.83
34482;BME280;20720;48.886;9.388;2023-07-09T07:52:27;98788.72;;;39.45;37.78
34482;BME280;20720;48.886;9.388;2023-07-09T07:54:53;98790.28;;;37.98;40.05
34482;BME280;20720;48.886;9.388;2023-07-09T07:57:18;98791.63;;;37.85;41.13
34482;BME280;20720;48.886;9.388;2023-07-09T07:59:44;98788.91;;;38.11;39.83
34482;BME280;20720;48.886;9.388;2023-07-09T08:02:12;98787.13;;;38.48;38.61
34482;BME280;20720;48.886;9.388;2023-07-09T08:04:39;98790.75;;;37.58;39.42
34482;BME280;20720;48.886;9.388;2023-07-09T08:07:06;98781.19;;;37.10;41.59
34482;BME280;20720;48.886;9.388;2023-07-09T08:09:32;98786.78;;;38.01;39.47
34482;BME280;20720;48.886;9.388;2023-07-09T08:11:58;98785.00;;;38.12;39.49
34482;BME280;20720;48.886;9.388;2023-07-09T08:14:23;98780.94;;;38.84;38.94
34482;BME280;20720;48.886;9.388;2023-07-09T08:16:48;98780.25;;;36.83;39.90
34482;BME280;20720;48.886;9.388;2023-07-09T08:19:19;98780.22;;;36.64;40.48
34482;BME280;20720;48.886;9.388;2023-07-09T08:21:45;98779.16;;;39.32;37.50
34482;BME280;20720;48.886;9.388;2023-07-09T08:24:10;98776.78;;;39.30;37.06
34482;BME280;20720;48.886;9.388;2023-07-09T08:26:35;98774.94;;;40.32;36.72
34482;BME280;20720;48.886;9.388;2023-07-09T08:29:03;98771.25;;;38.94;36.83
34482;BME280;20720;48.886;9.388;2023-07-09T08:31:30;98778.25;;;37.60;38.85
34482;BME280;20720;48.886;9.388;2023-07-09T08:33:55;98778.25;;;37.60;39.41
34482;BME280;20720;48.886;9.388;2023-07-09T08:36:20;98773.78;;;37.52;40.01
34482;BME280;20720;48.886;9.388;2023-07-09T08:38:46;98767.69;;;38.08;37.99
34482;BME280;20720;48.886;9.388;2023-07-09T08:41:28;98769.63;;;38.89;37.82
34482;BME280;20720;48.886;9.388;2023-07-09T08:44:08;98771.13;;;40.51;35.17
34482;BME280;20720;48.886;9.388;2023-07-09T08:47:02;98771.91;;;40.52;35.58
34482;BME280;20720;48.886;9.388;2023-07-09T08:49:44;98774.69;;;41.97;33.76
34482;BME280;20720;48.886;9.388;2023-07-09T08:52:24;98766.38;;;41.41;34.69
34482;BME280;20720;48.886;9.388;2023-07-09T08:54:52;98768.75;;;41.78;33.81
34482;BME280;20720;48.886;9.388;2023-07-09T08:57:25;98773.09;;;42.00;33.36
34482;BME280;20720;48.886;9.388;2023-07-09T08:59:57;98766.44;;;38.28;36.55
34482;BME280;20720;48.886;9.388;2023-07-09T09:02:45;98765.97;;;40.43;34.91
34482;BME280;20720;48.886;9.388;2023-07-09T09:05:17;98763.28;;;39.52;35.55
34482;BME280;20720;48.886;9.388;2023-07-09T09:07:44;98762.03;;;41.96;32.72
34482;BME280;20720;48.886;9.388;2023-07-09T09:10:26;98771.09;;;42.25;31.30
34482;BME280;20720;48.886;9.388;2023-07-09T09:13:16;98773.03;;;42.60;30.33
34482;BME280;20720;48.886;9.388;2023-07-09T09:15:46;98762.97;;;40.11;32.61
34482;BME280;20720;48.886;9.388;2023-07-09T09:18:20;98768.56;;;40.86;31.86
34482;BME280;20720;48.886;9.388;2023-07-09T09:20:51;98768.38;;;38.83;34.43
34482;BME280;20720;48.886;9.388;2023-07-09T09:23:17;98770.50;;;37.43;36.17
34482;BME280;20720;48.886;9.388;2023-07-09T09:25:51;98763.66;;;40.55;32.70
34482;BME280;20720;48.886;9.388;2023-07-09T09:28:17;98764.38;;;41.35;30.17
34482;BME280;20720;48.886;9.388;2023-07-09T09:30:43;98761.06;;;40.90;30.64
34482;BME280;20720;48.886;9.388;2023-07-09T09:33:10;98764.53;;;39.24;32.72
34482;BME280;20720;48.886;9.388;2023-07-09T09:35:39;98760.81;;;39.46;31.14
34482;BME280;20720;48.886;9.388;2023-07-09T09:38:17;98757.13;;;40.84;30.48
34482;BME280;20720;48.886;9.388;2023-07-09T09:40:42;98759.28;;;42.14;29.75
34482;BME280;20720;48.886;9.388;2023-07-09T09:43:12;98767.19;;;41.66;29.54
34482;BME280;20720;48.886;9.388;2023-07-09T09:45:40;98762.06;;;41.68;28.98
34482;BME280;20720;48.886;9.388;2023-07-09T09:48:18;98758.91;;;41.77;28.78
34482;BME280;20720;48.886;9.388;2023-07-09T09:50:45;98763.53;;;42.57;28.68
34482;BME280;20720;48.886;9.388;2023-07-09T09:53:21;98754.81;;;41.00;29.29
34482;BME280;20720;48.886;9.388;2023-07-09T09:55:47;98769.94;;;41.84;28.53
34482;BME280;20720;48.886;9.388;2023-07-09T09:58:16;98760.31;;;40.90;29.89
34482;BME280;20720;48.886;9.388;2023-07-09T10:00:48;98772.72;;;42.23;28.40
34482;BME280;20720;48.886;9.388;2023-07-09T10:03:14;98773.03;;;41.30;28.70
34482;BME280;20720;48.886;9.388;2023-07-09T10:05:58;98760.31;;;40.90;29.15
34482;BME280;20720;48.886;9.388;2023-07-09T10:08:40;98759.63;;;41.28;28.90
34482;BME280;20720;48.886;9.388;2023-07-09T10:11:36;98752.69;;;39.54;31.04
34482;BME280;20720;48.886;9.388;2023-07-09T10:17:22;98742.19;;;40.99;27.76
34482;BME280;20720;48.886;9.388;2023-07-09T10:20:00;98730.97;;;43.58;25.95
34482;BME280;20720;48.886;9.388;2023-07-09T10:22:34;98736.69;;;41.06;28.82
34482;BME280;20720;48.886;9.388;2023-07-09T10:25:14;98738.88;;;40.62;28.97
34482;BME280;20720;48.886;9.388;2023-07-09T10:27:53;98733.59;;;41.43;27.81
34482;BME280;20720;48.886;9.388;2023-07-09T10:30:40;98739.97;;;41.68;27.44
34482;BME280;20720;48.886;9.388;2023-07-09T10:33:11;98736.38;;;41.54;27.77
34482;BME280;20720;48.886;9.388;2023-07-09T10:36:11;98732.72;;;42.55;26.22
34482;BME280;20720;48.886;9.388;2023-07-09T10:39:02;98720.69;;;40.47;28.15
34482;BME280;20720;48.886;9.388;2023-07-09T10:41:31;98727.66;;;42.29;26.78
34482;BME280;20720;48.886;9.388;2023-07-09T10:44:06;98725.66;;;40.99;27.71
34482;BME280;20720;48.886;9.388;2023-07-09T10:46:38;98728.03;;;42.38;26.83
34482;BME280;20720;48.886;9.388;2023-07-09T10:49:05;98719.31;;;42.50;25.96
34482;BME280;20720;48.886;9.388;2023-07-09T10:51:38;98716.28;;;41.43;27.57
34482;BME280;20720;48.886;9.388;2023-07-09T10:54:21;98706.00;;;42.10;27.34
34482;BME280;20720;48.886;9.388;2023-07-09T10:56:51;98705.09;;;43.79;24.79
34482;BME280;20720;48.886;9.388;2023-07-09T10:59:26;98703.16;;;43.18;24.78
34482;BME280;20720;48.886;9.388;2023-07-09T11:02:01;98696.19;;;43.54;25.20
34482;BME280;20720;48.886;9.388;2023-07-09T11:04:41;98696.94;;;43.03;25.76
34482;BME280;20720;48.886;9.388;2023-07-09T11:07:14;98699.59;;;43.75;24.40
34482;BME280;20720;48.886;9.388;2023-07-09T11:09:43;98698.69;;;44.26;24.11
34482;BME280;20720;48.886;9.388;2023-07-09T11:12:19;98691.72;;;44.79;23.61
34482;BME280;20720;48.886;9.388;2023-07-09T11:15:12;98685.81;;;45.30;23.95
34482;BME280;20720;48.886;9.388;2023-07-09T11:17:43;98687.06;;;43.06;25.57
34482;BME280;20720;48.886;9.388;2023-07-09T11:20:19;98683.03;;;39.49;29.17
34482;BME280;20720;48.886;9.388;2023-07-09T11:22:53;98680.78;;;43.53;24.46
34482;BME280;20720;48.886;9.388;2023-07-09T11:25:30;98680.50;;;42.71;25.40
34482;BME280;20720;48.886;9.388;2023-07-09T11:28:06;98685.09;;;41.95;26.56
34482;BME280;20720;48.886;9.388;2023-07-09T11:30:32;98680.75;;;41.83;26.59
34482;BME280;20720;48.886;9.388;2023-07-09T11:33:01;98681.00;;;44.13;25.78
34482;BME280;20720;48.886;9.388;2023-07-09T11:35:29;98679.66;;;45.19;23.96
34482;BME280;20720;48.886;9.388;2023-07-09T11:37:55;98674.13;;;45.42;23.64
34482;BME280;20720;48.886;9.388;2023-07-09T11:40:23;98671.22;;;46.15;22.92
34482;BME280;20720;48.886;9.388;2023-07-09T11:42:58;98672.91;;;41.47;26.64
34482;BME280;20720;48.886;9.388;2023-07-09T11:45:30;98666.94;;;42.98;26.48
34482;BME280;20720;48.886;9.388;2023-07-09T11:48:13;98655.50;;;45.39;24.08
34482;BME280;20720;48.886;9.388;2023-07-09T11:50:45;98663.56;;;39.25;27.55
34482;BME280;20720;48.886;9.388;2023-07-09T11:53:35;98659.41;;;41.94;26.47
34482;BME280;20720;48.886;9.388;2023-07-09T11:56:02;98655.78;;;44.01;24.17
34482;BME280;20720;48.886;9.388;2023-07-09T11:58:28;98659.03;;;44.90;23.16
34482;BME280;20720;48.886;9.388;2023-07-09T12:00:55;98650.25;;;43.09;23.93
34482;BME280;20720;48.886;9.388;2023-07-09T12:03:34;98651.00;;;42.44;24.95
34482;BME280;20720;48.886;9.388;2023-07-09T12:06:03;98646.69;;;44.34;24.08
34482;BME280;20720;48.886;9.388;2023-07-09T12:08:34;98649.78;;;45.00;22.68
34482;BME280;20720;48.886;9.388;2023-07-09T12:11:00;98649.09;;;44.32;24.20
34482;BME280;20720;48.886;9.388;2023-07-09T12:13:25;98644.09;;;44.53;23.77
34482;BME280;20720;48.886;9.388;2023-07-09T12:15:51;98650.66;;;43.99;23.39
34482;BME280;20720;48.886;9.388;2023-07-09T12:18:16;98644.09;;;44.53;23.06
34482;BME280;20720;48.886;9.388;2023-07-09T12:20:52;98647.47;;;42.43;24.47
34482;BME280;20720;48.886;9.388;2023-07-09T12:23:29;98633.41;;;41.11;25.16
34482;BME280;20720;48.886;9.388;2023-07-09T12:25:55;98631.03;;;42.87;24.25
34482;BME280;20720;48.886;9.388;2023-07-09T12:28:25;98630.56;;;45.58;22.38
34482;BME280;20720;48.886;9.388;2023-07-09T12:30:52;98630.59;;;43.47;22.89
34482;BME280;20720;48.886;9.388;2023-07-09T12:33:26;98630.78;;;44.41;23.04
34482;BME280;20720;48.886;9.388;2023-07-09T12:35:59;98634.50;;;43.91;22.45
34482;BME280;20720;48.886;9.388;2023-07-09T12:38:27;98627.75;;;44.29;22.34
34482;BME280;20720;48.886;9.388;2023-07-09T12:40:53;98629.00;;;44.54;22.02
34482;BME280;20720;48.886;9.388;2023-07-09T12:43:26;98619.03;;;43.52;22.88
34482;BME280;20720;48.886;9.388;2023-07-09T12:45:52;98623.66;;;44.40;22.24
34482;BME280;20720;48.886;9.388;2023-07-09T12:48:21;98616.47;;;42.73;24.02
34482;BME280;20720;48.886;9.388;2023-07-09T12:50:50;98605.84;;;40.93;24.75
34482;BME280;20720;48.886;9.388;2023-07-09T12:53:18;98606.66;;;41.33;25.59
34482;BME280;20720;48.886;9.388;2023-07-09T12:55:46;98600.50;;;45.96;22.31
34482;BME280;20720;48.886;9.388;2023-07-09T12:58:19;98606.47;;;45.29;21.87
34482;BME280;20720;48.886;9.388;2023-07-09T13:00:50;98592.75;;;46.95;21.27
34482;BME280;20720;48.886;9.388;2023-07-09T13:03:18;98581.94;;;48.02;20.30
34482;BME280;20720;48.886;9.388;2023-07-09T13:05:55;98584.34;;;47.59;19.55
34482;BME280;20720;48.886;9.388;2023-07-09T13:08:21;98585.06;;;45.72;21.34
34482;BME280;20720;48.886;9.388;2023-07-09T13:10:47;98584.84;;;45.63;20.82